Ana Sayfa
METAR-TAF:

METAR-TAF

Havaalanları :

De Aar, Güney Afrika

Enlem: 30-40-29S, Boylam: 23-59-57E, yükseklik: 1286 m

Güncel hava durumu gözlemi

Rapor saat 07:46 UTC de 18 saat ve 43 dakika önce yapıldı.
Rüzgar kuzey/kuzeydoğudan 5 kt
Sıcaklık 13°C
Nem 28%
Basınç 1025 hPa
Görüş mesafesi: 5000 m
Toz Pusu

METAR: FADY 060746Z 02005KT 5000 HZ NSC 13/M05 Q1025

Saat: 04:29 (02:29 UTC)


TAF: eksik

4.000'den fazla havaalanı için hava durumu gözlemleri ve tahminleri (METAR ve TAF raporları).

Kullanılabilir istasyonlar harita üzerinde sarı ve kırmızı noktalarla gösterilir.

İstasyonun adını görmek için fareyi noktanın üzerinde gezdirin.

Sonrasında hava gözlem ve tahminlerini görmek için tıklayın.

Haritayı değiştirmek için: yaklaştırmak için siyah artı işaretli yeşil düğmeye ve uzaklaştırmak için de eksi işaretli düğmeye hızla tıklayın; bitişik haritalar için yeşil okları kullanın.


METAR-TAF: